Coalburn, United Kingdom
Current Conditions -  °F | °C
As of 6:50 AM on Monday 22 Dec 2014 (Local Time) from EGPK Reporting Station
Light Rain Light Rain  
Wind Chill: 46°   Ceiling: 1400
Heat Index: 46°   Visibility: 4mi
Dew Point: 46°   Wind: 3mph
Humidity: 100%   Direction: 240°WSW
Pressure: 29.65"   Gusts: NA
Location:  55.58°N, 3.9°W
Report Text: EGPK 220650Z 24003KT 7000 -RA SCT006 BKN014 08/08 Q1004
Loading
Personal Weather Stations






























Interactive Weather Map New forecast layout! Learn more

10-Day Weather Forecast

Advertisements
Track Severe Weather on mobile